CheckWX is a tool to help pilots better visualize weather data.  It is not intended as a substitute for an official pre-flight weather briefing.

07:58:15 UTC

OMAL TAF
Al Ain International Airport
Al Ain, United Arab Emirates
TAF OMAL 200500Z 2006/2112 22008KT 8000 NSC BECMG 2007/2009 29015KT PROB30 TEMPO 2010/2014 VRB18G28KT 4000 BLDU FEW045TCU BECMG 2020/2022 01005KT PROB30 2100/2103 VRB02KT 4000 HZ BECMG 2107/2109 30012KT

Jun-20@
06:00 UTC

Jun-20 @ 06:00 UTC

Jun-20@
07:00 UTC

Jun-20 @ 07:00 UTC

TAF OMAL 200500Z 2006/2112 22008KT 8000 NSC

Expired

Wind
  • 220° at 8 KTS
Cloud Levels
  • No significant clouds

Jun-20@
07:00 UTC

Jun-20 @ 07:00 UTC

Jun-20@
20:00 UTC

Jun-20 @ 20:00 UTC

BECMG 2007/2009 29015KT

Becoming

Becoming Conditions expected by Thu, Jun 20, 2019 @ 09:00 UTC

Wind
  • 290° at 15 KTS
Cloud Levels
  • No significant clouds

Jun-20@
10:00 UTC

Jun-20 @ 10:00 UTC

Jun-20@
14:00 UTC

Jun-20 @ 14:00 UTC

PROB30 TEMPO 2010/2014 VRB18G28KT 4000 BLDU FEW045TCU

Temporary - 30% Likelihood

Temporary - 30% Likelihood during this time.

Wind
  • Variable at 18 KTS
  • {Gusting to 28 KTS
Conditions
Blowing Dust
Cloud Levels
  • Few at 4,500' AGL

Jun-20@
20:00 UTC

Jun-20 @ 20:00 UTC

Jun-21@
07:00 UTC

Jun-21 @ 07:00 UTC

BECMG 2020/2022 01005KT

Becoming

Becoming Conditions expected by Thu, Jun 20, 2019 @ 22:00 UTC

Wind
  • 010° at 5 KTS
Cloud Levels
  • No significant clouds

Jun-21@
00:00 UTC

Jun-21 @ 00:00 UTC

Jun-21@
03:00 UTC

Jun-21 @ 03:00 UTC

PROB30 2100/2103 VRB02KT 4000 HZ

Probable - 30% Likelihood

Probable - 30% Likelihood during this time.

Wind
  • Variable at 2 KTS
Conditions
Haze

Jun-21@
07:00 UTC

Jun-21 @ 07:00 UTC

Jun-21@
12:00 UTC

Jun-21 @ 12:00 UTC

BECMG 2107/2109 30012KT

Becoming

Becoming Conditions expected by Fri, Jun 21, 2019 @ 09:00 UTC

Wind
  • 300° at 12 KTS
Cloud Levels
  • No significant clouds